Tiempo atmosférico en la estación meteorológica de Madrid Aeropuerto, Madrid (609 m.)



Fecha
DESCASC
Temp. máxima en grados centígrados (hora)
DESCASC
Temp. mínima en grados centígrados (hora)
DESCASC
Temp. media en grados centígrados
DESCASC
Racha de viento máxima en m/sg (hora)
DESCASC
Velocidad máxima media en intervalos de 10 minutos(hora)
DESCASC
Precipitaciones diarias en mm
DESCASC
Precipitaciones de 00:00 a 06:00 en mm
DESCASC
Precipitaciones de 06:00 a 12:00 en mm
DESCASC
Precipitaciones de 12:00 a 18:00 en mm
DESCASC
Precipitaciones de 18:00 a 24:00 en mm
DESCASC
19-01-2020 11.6 (16:00) 3 (03:10) 7.3 18.89 (16:10) 11.11 (14:10) 0 0 0 0 0
18-01-2020 9.1 (16:50) 3.2 (03:40) 6.2 8.89 (21:30) 5.28 (21:30) 1.3 0 0.4 0.2 0.7
17-01-2020 13.5 (16:50) 4 (07:10) 8.8 14.44 (12:20) 8.06 (12:10) 0 0 0 0 0
16-01-2020 14.1 (16:40) 5.4 (00:00) 9.8 5.83 (17:10) 3.61 (17:10) 0 0 0 0 0
15-01-2020 8.9 (16:20) 0.2 (00:00) 4.5 5 (14:10) 2.78 (15:10) 0 0 0 0 0
14-01-2020 9.5 (16:40) -4.6 (-00:0) 2.5 7.22 (15:30) 3.61 (15:30) 0 0 0 0 0
13-01-2020 9.2 (16:20) -4.3 (-00:0) 2.4 -- (--) -- (--) 0 0 0 0 0
12-01-2020 11.1 (16:20) -5 (-00:0) 3.1 4.17 (11:40) 2.5 (00:30) 0 0 0 0 0
11-01-2020 13.3 (16:50) -2.3 (-00:0) 5.5 5.83 (17:50) 3.33 (08:20) 0 0 0 0 0
10-01-2020 12.3 (16:20) -0.2 (00:00) 6.1 10.83 (13:20) 6.67 (13:10) 0 0 0 0 0
09-01-2020 13.6 (14:30) -0.6 (-00:0) 6.5 6.11 (17:20) 4.44 (22:10) 0 0 0 0 0
08-01-2020 17.1 (16:40) -1.6 (-00:0) 7.8 3.06 (09:30) 2.5 (09:30) 0 0 0 0 0
07-01-2020 14.3 (16:40) -2.3 (-00:0) 6 3.61 (11:30) 2.5 (08:20) 0 0 0 0 0
06-01-2020 14.3 (16:10) -2.5 (-00:0) 5.9 -- (--) -- (--) 0 0 0 0 0
05-01-2020 13 (16:20) -2.3 (-00:0) 5.4 4.17 (02:50) 3.33 (02:50) 0 0 0 0 0
04-01-2020 12.4 (15:30) -1.6 (-00:0) 5.4 9.72 (13:20) 5.83 (13:30) 0 0 0 0 0
03-01-2020 4.5 (16:10) -1.6 (-00:0) 1.4 4.17 (17:20) 2.78 (21:30) 0 0 0 0 0
02-01-2020 12.9 (16:30) -2.3 (-00:0) 5.3 -- (--) -- (--) 0 0 0 0 0
01-01-2020 12.8 (16:10) -2.1 (-00:0) 5.4 -- (--) -- (--) 0 0 0 0 0
31-12-2019 12.9 (15:30) -1.4 (-00:0) 5.7 4.72 (15:50) 2.5 (15:50) 0 0 0 0 0
30-12-2019 14.1 (16:00) -2.1 (-00:0) 6 -- (--) -- (--) 0 0 0 0 0
29-12-2019 15 (16:50) -2.3 (-00:0) 6.4 -- (--) -- (--) 0 0 0 0 0
28-12-2019 15.9 (16:10) -2.2 (-00:0) 6.8 3.61 (14:30) 2.5 (04:40) 0 0 0 0 0
27-12-2019 14.4 (16:30) -0.7 (-00:0) 6.8 -- (--) -- (--) -- 0 -- 0 0
26-12-2019 17.6 (16:40) 2.5 (00:00) 10.1 5 (23:00) 3.89 (23:00) 0 0 0 0 0
25-12-2019 16.9 (15:50) 1.5 (00:00) 9.2 5 (13:20) 2.22 (16:50) 0 0 0 0 0
24-12-2019 14 (15:50) 2.6 (00:00) 8.3 -- (--) -- (--) 0 0 0 0 0
23-12-2019 14 (15:30) 4.9 (00:00) 9.5 10.83 (00:10) 6.39 (01:20) 0 0 0 0 0

Gráficas

Temp. máximas Temp. mínimas Temp. medias Precipitaciones Rachas de viento máximas Velocidades máximas media en intervalos de 10 minutos

Datos horarios

Fecha y hora oficial Temperatura (ºC) Velocidad del viento (km/h) Dirección del viento Racha (km/h) Dirección de racha Precipitación (mm) Presión (hPa) Tendencia (hPa) Humedad (%)
2020-01-21 23:00:00 5.7 14 Norte 35 Nordeste 0 950 0.7 80
2020-01-21 22:00:00 5.9 13 Nordeste 35 Nordeste 0 949.5 0.8 78
2020-01-21 21:00:00 5.9 19 Norte 32 Norte 0 949 0.4 80
2020-01-21 20:00:00 5.7 14 Nordeste 33 Nordeste 0 949.3 0.6 79
2020-01-21 19:00:00 5.1 14 Nordeste 28 Nordeste 0 948.7 0.1 83
2020-01-21 18:00:00 5.2 13 Nordeste 30 Norte 0 948.6 0.3 84
2020-01-21 17:00:00 4.9 10 Nordeste 35 Nordeste 1.4 948.7 -1 88
2020-01-21 16:00:00 6.7 21 Nordeste 54 Norte 0 948.6 -1.9 70
2020-01-21 15:00:00 7.7 23 Nordeste 42 Norte 0 948.3 -3 62
2020-01-21 14:00:00 7.6 18 Norte 46 Nordeste 0 949.7 -1.6 63
2020-01-21 13:00:00 6.9 18 Norte 41 Norte 0 950.5 -0.7 65
2020-01-21 12:00:00 6.2 22 Norte 45 Nordeste 0 951.3 -0.3 67
2020-01-21 11:00:00 5.9 22 Norte 48 Nordeste 0 951.3 -0.7 67
2020-01-21 10:00:00 5.6 23 Nordeste 48 Nordeste 0 951.2 -1.1 68
2020-01-21 09:00:00 5.6 25 Norte 42 Norte 0 951.6 -1 63
2020-01-21 08:00:00 5.4 19 Norte 37 Norte 0 952 -1.2 64
2020-01-21 07:00:00 4.9 18 Norte 46 Norte 0 952.3 -1.8 64
2020-01-21 06:00:00 4.8 23 Norte 42 Norte 0 952.6 -1.7 62
2020-01-21 05:00:00 4.7 19 Norte 41 Este 0 953.2 -1.3 59
2020-01-21 04:00:00 4.5 23 Norte 42 Nordeste 0 954.1 -0.9 59
2020-01-21 03:00:00 4.6 22 Norte 46 Norte 0 954.3 -0.7 59
2020-01-21 02:00:00 4.9 24 Norte 42 Norte 0 954.5 -0.7 57
2020-01-21 01:00:00 5 22 Norte 39 Norte 0 955 -0.3 56
2020-01-21 00:00:00 5.3 18 Norte 41 Norte 0 955 0 56
2020-01-20 23:00:00 5 19 Nordeste 39 Nordeste 0 955.2 0.4 57
2020-01-20 22:00:00 4.7 17 Norte 39 Norte 0 955.3 0.7 54
2020-01-20 21:00:00 5 21 Norte 41 Nordeste 0 955 1.1 52
2020-01-20 20:00:00 5.3 17 Nordeste 50 Nordeste 0 954.8 1 53
2020-01-20 19:00:00 5.6 15 Nordeste 41 Nordeste 0 954.6 0.9 51
2020-01-20 18:00:00 5.7 22 Nordeste 42 Nordeste 0 953.9 0.2 49
2020-01-20 17:00:00 6.1 21 Nordeste 45 Nordeste 0 953.8 -0.6 46
2020-01-20 16:00:00 6.4 18 Nordeste 42 Nordeste 0 953.7 -1 44
2020-01-20 15:00:00 6.4 20 Nordeste 42 Nordeste 0 953.7 -1.2 42
2020-01-20 14:00:00 6.1 21 Nordeste 46 Nordeste 0 954.4 0 38
2020-01-20 13:00:00 6.4 27 Nordeste 46 Nordeste 0 954.7 0.3 34
2020-01-20 12:00:00 6 28 Nordeste 48 Nordeste 0 954.9 0.3 29
2020-01-20 11:00:00 3.9 22 Norte 41 Norte 0 954.4 -0.4 34
2020-01-20 10:00:00 3.1 24 Norte 45 Norte 0 954.4 -0.3 35
2020-01-20 09:00:00 2.8 21 Nordeste 39 Nordeste 0 954.6 0 35
2020-01-20 08:00:00 2.5 12 Norte 26 Norte 0 954.8 -0.1 36
2020-01-20 07:00:00 2.2 13 Norte 39 Nordeste 0 954.7 -0.6 37
2020-01-20 06:00:00 2.3 16 Nordeste 33 Norte 0 954.6 -1 37
2020-01-20 05:00:00 2.7 8 Nordeste 39 Norte 0 954.9 -1.1 37
2020-01-20 04:00:00 2.8 16 Nordeste 33 Nordeste 0 955.3 -1 36
2020-01-20 03:00:00 3.4 19 Nordeste 33 Nordeste 0 955.6 -0.8 35
2020-01-20 02:00:00 3.3 19 Norte 32 Norte 0 956 -0.3 35
2020-01-20 01:00:00 3.8 17 Norte 32 Nordeste 0 956.3 0.7 35
2020-01-20 00:00:00 3.7 15 Nordeste 30 Norte 0 956.4 1.4 36
2020-01-19 23:00:00 3.9 14 Nordeste 30 Norte 0 956.3 2.1 36
2020-01-19 22:00:00 4.8 12 Nordeste 39 Norte 0 955.6 2 32
2020-01-19 21:00:00 5.5 21 Norte 35 Norte 0 955 2.1 27
2020-01-19 20:00:00 5.5 24 Norte 48 Norte 0 954.2 1.6 39
2020-01-19 19:00:00 7.5 31 Norte 65 Norte 0 953.6 1.3 21
2020-01-19 18:00:00 8.7 35 Norte 61 Nordeste 0 952.9 0.9 22
2020-01-19 17:00:00 9.9 35 Norte 68 Nordeste 0 952.6 -0.1 22
2020-01-19 16:00:00 11.5 37 Nordeste 67 Norte 0 952.3 -0.4 22
2020-01-19 15:00:00 11.2 35 Nordeste 67 Nordeste 0 952 -1.1 26
2020-01-19 14:00:00 9.8 35 Norte 59 Norte 0 952.7 0.1 32
2020-01-19 13:00:00 8.7 26 Norte 48 Norte 0 952.7 1.3 47
2020-01-19 12:00:00 7.5 17 Norte 37 Norte 0 953.1 1.7 66
2020-01-19 11:00:00 7 24 Norte 33 Norte 0 952.6 1.7 71
2020-01-19 10:00:00 6.9 17 Norte 33 Norte 0 951.4 0.3 73
2020-01-19 09:00:00 6 18 Norte 28 Norte 0 951.4 0.1 80
2020-01-19 08:00:00 5.5 13 Norte 22 Norte 0 950.9 -0.8 82
2020-01-19 07:00:00 3.7 7 Norte 9 Norte 0 951.1 -0.9 90
2020-01-19 06:00:00 3.4 5 Norte 17 Noroeste 0 951.3 -0.8 89
2020-01-19 05:00:00 4.4 8 Norte 15 Noroeste 0 951.7 0.4 85
2020-01-19 04:00:00 3.9 9 Noroeste 13 Noroeste 0 952 0.7 92
2020-01-19 03:00:00 3.4 2 Nordeste 11 Este 0 952.1 0.4 93
2020-01-19 02:00:00 4.8 8 Oeste 15 Oeste 0 951.3 -0.8 88
2020-01-19 01:00:00 5.9 10 Nordeste 30 Oeste 0 951.3 -0.9 88
2020-01-19 00:00:00 7.9 15 Oeste 26 Oeste 0.2 951.7 -0.6 80
2020-01-18 23:00:00 7.8 9 Sur 17 Sudoeste 0 952.1 -0.8 92
2020-01-18 22:00:00 8.6 6 Sudoeste 32 Noroeste 0.1 952.2 -0.4 87
2020-01-18 21:00:00 8.7 13 Sudoeste 28 Sur 0 952.3 -0.9 91
2020-01-18 20:00:00 9.1 9 Oeste 15 Sudoeste 0.4 952.9 -1.1 95
2020-01-18 19:00:00 9 8 Sur 18 Sur 0 952.6 -2.3 95
2020-01-18 18:00:00 9.1 9 Sur 17 Sur 0 953.2 -3.2 94
2020-01-18 17:00:00 9.1 9 Sur 22 Sudoeste 0 954 -3.7 92
2020-01-18 16:00:00 8.9 9 Sur 18 Sur 0 954.9 -4.3 92
2020-01-18 15:00:00 8.4 8 Sur 21 Sur 0 956.4 -4.3 93
2020-01-18 14:00:00 8.2 8 Sur 22 Sur 0 957.7 -3.4 90
2020-01-18 13:00:00 7.8 9 Sur 17 Sur 0.2 959.2 -2.1 90
2020-01-18 12:00:00 6.7 0 Calma 5 Norte 0 960.7 -0.5 89
2020-01-18 11:00:00 5.2 4 Norte 9 Norte 0.2 961.1 -0.3 91
2020-01-18 10:00:00 4.2 7 Norte 11 Norte 0 961.3 -0.4 93
2020-01-18 09:00:00 3.9 0 Calma 5 Nordeste 0 961.2 0.4 93
2020-01-18 08:00:00 3.9 4 Norte 9 Este 0.2 961.4 -0.5 92
2020-01-18 07:00:00 3.8 2 Oeste 15 Norte 0 961.7 0 87
2020-01-18 06:00:00 3.5 5 Sudeste 9 Sur 0 960.8 -1 84
2020-01-18 05:00:00 3.5 7 Norte 11 Norte 0 961.9 -0.5 84
2020-01-18 04:00:00 3.2 2 Norte 11 Norte 0 961.7 -0.8 86
2020-01-18 03:00:00 3.6 4 Noroeste 9 Nordeste 0 961.8 -1.1 85
2020-01-18 02:00:00 3.8 5 Norte 13 Noroeste 0 962.4 -0.7 85
2020-01-18 01:00:00 3.9 6 Noroeste 11 Norte 0 962.5 -0.6 84
2020-01-18 00:00:00 5 7 Norte 9 Noroeste 0 962.9 0 84
2020-01-17 23:00:00 6 3 Oeste 13 Noroeste 0 963.1 0.1 86
2020-01-17 22:00:00 7 3 Este 18 Oeste 0 963.1 0.7 84
2020-01-17 21:00:00 6.8 0 Calma 9 Sudoeste 0 962.9 1 85
2020-01-17 20:00:00 9 10 Sudoeste 22 Oeste 0 963 1.5 76
2020-01-17 19:00:00 10.3 12 Sur 28 Sudoeste 0 962.4 1.3 72
2020-01-17 18:00:00 11.5 17 Sudoeste 28 Sudoeste 0 961.9 0.8 65
2020-01-17 17:00:00 13.4 9 Oeste 17 Oeste 0 961.5 -0.2 55
2020-01-17 16:00:00 12.8 6 Norte 22 Noroeste 0 961.1 -1 57
2020-01-17 15:00:00 12.5 9 Oeste 24 Oeste 0 961.1 -1.1 62
2020-01-17 14:00:00 11.6 15 Oeste 35 Oeste 0 961.7 0 67
2020-01-17 13:00:00 11.1 19 Oeste 52 Sudoeste 0 962.1 1 71
2020-01-17 12:00:00 11.3 25 Sudoeste 41 Oeste 0 962.2 1.6 71
2020-01-17 11:00:00 9.4 24 Sudoeste 39 Sudoeste 0 961.7 1.7 80
2020-01-17 10:00:00 8 20 Sudoeste 37 Sudoeste 0 961.1 1.4 87
2020-01-17 09:00:00 6 14 Sudoeste 28 Sudoeste 0 960.6 1.4 91
2020-01-17 08:00:00 5 10 Sudeste 21 Sudoeste 0 960 1.2 90
2020-01-17 07:00:00 4.7 4 Sur 15 Sur 0 959.7 0.8 88
2020-01-17 06:00:00 5.2 5 Sudoeste 11 Sur 0 959.2 0.3 85
2020-01-17 05:00:00 5.4 5 Este 13 Sur 0 958.8 0.5 83
2020-01-17 04:00:00 7.2 6 Sur 11 Sur 0 958.9 0.1 78
2020-01-17 03:00:00 8.1 8 Sudeste 11 Sudeste 0 958.9 0.5 74
2020-01-17 02:00:00 8.1 8 Sur 13 Sur 0 958.3 0.2 71
2020-01-17 01:00:00 7.7 6 Sur 17 Oeste 0 958.8 0.9 72
2020-01-17 00:00:00 6.2 0 Calma 8 Este 0 958.4 0.6 93
2020-01-16 23:00:00 6.1 3 Este 9 Sudoeste 0 958.1 0.8 91
2020-01-16 22:00:00 7 7 Nordeste 9 Nordeste 0 957.9 1 93
2020-01-16 21:00:00 7.7 2 Nordeste 9 Noroeste 0 957.8 1.1 89
2020-01-16 20:00:00 8.6 10 Noroeste 13 Noroeste 0 957.3 0.7 88
2020-01-16 19:00:00 8.7 8 Noroeste 15 Noroeste 0 956.9 -0.1 86
2020-01-16 18:00:00 11.8 7 Oeste 21 Sur 0 956.7 -0.7 63
2020-01-16 17:00:00 14 13 Sur 17 Sur 0 956.6 -1.8 60
2020-01-16 16:00:00 13.3 0 Calma 13 Noroeste 0 957 -2 68
2020-01-16 15:00:00 11.4 9 Norte 15 Norte 0 957.4 -2 74
2020-01-16 14:00:00 11.5 6 Sudoeste 18 Sudoeste 0 958.4 -1.1 74
2020-01-16 13:00:00 10.2 7 Sur 11 Sur 0 959 -0.4 78
2020-01-16 12:00:00 8.9 0 Calma 9 Sur 0 959.4 0.2 83
2020-01-16 11:00:00 8 2 Sudeste 5 Sur 0 959.5 0.4 89
2020-01-16 10:00:00 7.1 0 Calma 8 Noroeste 0 959.4 0.9 88
2020-01-16 09:00:00 6.6 0 Calma 13 Norte 0 959.2 0.6 88
2020-01-16 08:00:00 6.3 3 Norte 5 Norte 0 959.1 0.2 89
2020-01-16 07:00:00 6.5 4 Norte -- -- 0 958.5 -0.5 88
2020-01-16 06:00:00 6.5 4 Noroeste -- -- 0 958.6 -0.6 88
2020-01-16 05:00:00 6.5 4 Norte 11 Noroeste 0 958.9 -0.3 87
2020-01-16 04:00:00 6.2 5 Norte 9 Noroeste 0 959 -0.5 88
2020-01-16 03:00:00 6.3 -- -- -- -- 0 959.2 -0.5 85
2020-01-16 02:00:00 7 8 Norte 13 Noroeste 0 959.2 -0.3 83
2020-01-16 01:00:00 7 9 Norte 13 Norte 0 959.5 0.2 83
2020-01-16 00:00:00 6.8 9 Noroeste 11 Noroeste 0 959.7 0.4 84
2020-01-15 23:00:00 7.2 8 Norte 13 Norte 0 959.5 0.5 81
2020-01-15 22:00:00 7.2 8 Norte 15 Norte 0 959.3 0.8 81
2020-01-15 21:00:00 7.2 8 Noroeste 11 Noroeste 0 959.3 1.4 82
2020-01-15 20:00:00 7.3 5 Norte 9 Norte 0 959 1.6 82
2020-01-15 19:00:00 7.6 7 Norte 9 Norte 0 958.5 1.2 83
2020-01-15 18:00:00 8.6 0 Calma 9 Sudoeste 0 957.9 1 79
2020-01-15 17:00:00 8.9 5 Sudeste 13 Sur 0 957.4 -0.1 72
2020-01-15 16:00:00 8.6 6 Sur 13 Sur 0 957.3 -0.5 73
2020-01-15 15:00:00 8.4 10 Sur 18 Sudoeste 0 956.9 -1.1 75
2020-01-15 14:00:00 7.2 9 Sur 15 Sur 0 957.5 -0.1 77
2020-01-15 13:00:00 6.5 4 Sur 11 Sur 0 957.8 1.4 80
2020-01-15 12:00:00 5.2 3 Sudeste 5 Sudeste 0 958 2.2 85
2020-01-15 11:00:00 4.2 0 Calma 9 Sur 0 957.6 2.5 87
2020-01-15 10:00:00 2.4 4 Norte 13 Norte 0 956.4 1.9 91
2020-01-15 09:00:00 0.6 5 Norte 9 Norte 0 955.8 1.7 93
2020-01-15 08:00:00 0.3 6 Norte 11 Norte 0 955.1 0.6 93
2020-01-15 07:00:00 0.4 8 Norte 15 Norte 0 954.5 -0.4 91
2020-01-15 06:00:00 1.2 4 Sur 9 Sudeste 0 954.1 -0.6 89
2020-01-15 05:00:00 1.8 0 Calma 8 Noroeste 0 954.5 -0.2 86
2020-01-15 04:00:00 3.1 5 Norte 9 Norte 0 954.9 0 84
2020-01-15 03:00:00 3.3 4 Norte 5 Norte 0 954.7 -0.3 83
2020-01-15 02:00:00 3.5 0 Calma 13 Noroeste 0 954.7 -0.4 81
2020-01-15 01:00:00 3.5 9 Noroeste 11 Noroeste 0 954.9 0 83
2020-01-15 00:00:00 3.3 5 Norte 9 Norte 0 955 0.5 81
2020-01-14 23:00:00 3 5 Norte 8 Norte 0 955.1 0.5 84
2020-01-14 22:00:00 2.9 4 Norte 11 Noroeste 0 954.9 0.7 84
2020-01-14 21:00:00 3.3 9 Noroeste 13 Norte 0 954.5 0.9 79
2020-01-14 20:00:00 4.7 10 Noroeste 15 Norte 0 954.6 1.2 77
2020-01-14 19:00:00 4 13 Noroeste 15 Noroeste 0 954.2 0.8 79
2020-01-14 18:00:00 7 4 Norte 22 Sudoeste 0 953.6 -0.2 67
2020-01-14 17:00:00 9.1 8 Sur 15 Sudoeste 0 953.4 -1.2 60
2020-01-14 16:00:00 9.2 9 Sudoeste 26 Sudoeste 0 953.4 -2.1 59
2020-01-14 15:00:00 8.2 7 Norte 11 Noroeste 0 953.8 -2.2 61
2020-01-14 14:00:00 7.4 3 Sur 13 Oeste 0 954.6 -1.6 62
2020-01-14 13:00:00 5.6 4 Sudoeste 13 Oeste 0 955.5 -0.3 68
2020-01-14 12:00:00 2.5 5 Noroeste 9 Noroeste 0 956 0.5 78
2020-01-14 11:00:00 -0.2 4 Noroeste 9 Noroeste 0 956.2 1.1 83
2020-01-14 10:00:00 -2.4 5 Norte 8 Norte 0 955.8 0.8 91
2020-01-14 09:00:00 -4.3 6 Noroeste 11 Norte 0 955.5 0.9 92
2020-01-14 08:00:00 -4.5 6 Norte 9 Noroeste 0 955.1 0.4 91
2020-01-14 07:00:00 -4.2 -- -- -- -- 0 955 0 91
2020-01-14 06:00:00 -3.9 8 Norte 9 Norte 0 954.6 -0.3 91
2020-01-14 05:00:00 -3.4 4 Norte 8 Norte 0 954.7 -0.6 91
2020-01-14 04:00:00 -2.7 4 Norte 11 Norte 0 955 -0.7 91
2020-01-14 03:00:00 -2.5 5 Norte 9 Norte 0 954.9 -1.3 91
2020-01-14 02:00:00 -2.1 4 Norte -- -- 0 955.3 -0.7 90
2020-01-14 01:00:00 -1.4 6 Norte 11 Norte 0 955.7 -0.1 90
2020-01-14 00:00:00 -1.3 6 Norte 9 Norte 0 956.2 0.6 91
2020-01-13 23:00:00 -0.5 5 Norte 9 Norte 0 956 0.2 88
2020-01-13 22:00:00 0.8 5 Norte -- -- 0 955.8 0.1 83
2020-01-13 21:00:00 3.7 8 Sur 15 Sudoeste 0 955.6 0.2 72
2020-01-13 20:00:00 3.4 5 Sur 11 Sudoeste 0 955.8 0.2 74
2020-01-13 19:00:00 5.8 7 Sur 15 Sur 0 955.7 0.1 66
2020-01-13 18:00:00 7.6 12 Sudoeste 17 Sudoeste 0 955.4 -0.8 58
2020-01-13 17:00:00 8.4 9 Sur 39 Sudoeste 0 955.6 -1.5 58
2020-01-13 16:00:00 8.7 14 Sur 30 Sur 0 955.6 -2.5 56
2020-01-13 15:00:00 7.7 6 Sudeste 15 Sur 0 956.2 -2.4 58
2020-01-13 14:00:00 5.8 5 Sur 13 Sur 0 957.1 -2.1 64
2020-01-13 13:00:00 3.6 5 Norte 9 Norte 0 958.1 -0.7 69
2020-01-13 12:00:00 1 4 Noroeste 8 Sudoeste 0 958.6 0.1 76
2020-01-13 11:00:00 -0.9 3 Noroeste 5 Noroeste 0 959.2 0.6 83
2020-01-13 10:00:00 -3 4 Norte -- -- 0 958.8 0.1 89
2020-01-13 09:00:00 -4.3 -- -- -- -- 0 958.5 -0.1 90
2020-01-13 08:00:00 -4.1 5 Norte 8 Norte 0 958.6 -0.4 90
2020-01-13 07:00:00 -4.1 5 Norte -- -- 0 958.7 -0.7 90
2020-01-13 06:00:00 -4 -- -- -- -- 0 958.6 -1.2 89
2020-01-13 05:00:00 -3.1 -- -- -- -- 0 959 -1.2 88
2020-01-13 04:00:00 -2.9 5 Norte -- -- 0 959.4 -1.3 88
2020-01-13 03:00:00 -2.6 5 Noroeste 9 Norte 0 959.8 -1.6 87
2020-01-13 02:00:00 -1.9 9 Norte 13 Noroeste 0 960.2 -1 86
2020-01-13 01:00:00 -1.5 7 Norte 9 Norte 0 960.7 -0.5 85
2020-01-13 00:00:00 -1.2 6 Norte 9 Norte 0 961.4 0.3 84
2020-01-12 23:00:00 -0.5 7 Norte 9 Norte 0 961.2 0.3 81
2020-01-12 22:00:00 0.6 6 Norte 9 Norte 0 961.2 0.6 76
2020-01-12 21:00:00 2.1 2 Nordeste 8 Sudeste 0 961.1 1 74
2020-01-12 20:00:00 3.3 4 Sur 5 Sur 0 960.9 1 69
2020-01-12 19:00:00 6 5 Sudeste 9 Sudeste 0 960.6 0.5 59
2020-01-12 18:00:00 8.3 5 Sudeste 8 Sudeste 0 960.1 -0.3 51
2020-01-12 17:00:00 10.5 6 Sudeste 11 Sudeste 0 959.9 -1.6 42
2020-01-12 16:00:00 10.9 4 Sudeste 8 Oeste 0 960.1 -2.3 42
2020-01-12 15:00:00 9.6 3 Sur 9 Sudoeste 0 960.4 -3 44
2020-01-12 14:00:00 7.8 4 Sur 13 Sudoeste 0 961.5 -1.9 53
2020-01-12 13:00:00 5.4 2 Noroeste 9 Sudoeste 0 962.4 -0.6 62
2020-01-12 12:00:00 2.9 4 Oeste 15 Oeste 0 963.4 0.8 65
2020-01-12 11:00:00 0.6 2 Sudoeste 9 Sur 0 963.4 0.9 71
2020-01-12 10:00:00 -2.4 4 Norte 8 Norte 0 963 0.8 82
2020-01-12 09:00:00 -4.8 5 Norte 9 Norte 0 962.6 0.4 88
2020-01-12 08:00:00 -4.8 4 Norte 8 Norte 0 962.5 0.5 88
2020-01-12 07:00:00 -4.5 2 Norte 8 Nordeste 0 962.2 -0.2 86
2020-01-12 06:00:00 -3.7 5 Norte 8 Norte 0 962.2 -0.2 85
2020-01-12 05:00:00 -3.1 6 Norte 9 Norte 0 962 -0.3 84
2020-01-12 04:00:00 -2.6 5 Norte 8 Norte 0 962.4 0 83
2020-01-12 03:00:00 -2.6 5 Norte -- -- 0 962.4 -0.1 84
2020-01-12 02:00:00 -2.1 3 Norte 9 Norte 0 962.3 -0.2 82
2020-01-12 01:00:00 -1.2 7 Norte 11 Norte 0 962.4 -0.1 80
2020-01-12 00:00:00 -0.8 6 Norte 9 Norte 0 962.5 0.4 79
2020-01-11 23:00:00 -0.1 5 Norte 9 Norte 0 962.5 0.7 78
2020-01-11 22:00:00 1.1 6 Norte 9 Norte 0 962.5 1.2 77
2020-01-11 21:00:00 4.1 4 Este 11 Sur 0 962.1 1.3 70
2020-01-11 20:00:00 4.4 5 Sudeste 13 Sudoeste 0 961.8 0.9 67
2020-01-11 19:00:00 6.3 7 Sur 15 Sudoeste 0 961.3 0.3 60
2020-01-11 18:00:00 9.7 10 Sur 21 Sur 0 960.8 -0.5 48
2020-01-11 17:00:00 12.8 3 Sudeste 9 Oeste 0 960.9 -0.9 38
2020-01-11 16:00:00 12.4 4 Sur 11 Sudoeste 0 961 -2.1 40
2020-01-11 15:00:00 11.8 4 Sudoeste 18 Sudoeste 0 961.3 -2.7 42
2020-01-11 14:00:00 10.1 6 Sudoeste 17 Sudoeste 0 961.8 -2.2 48
2020-01-11 13:00:00 7.7 9 Noroeste 13 Noroeste 0 963.1 -0.4 57
2020-01-11 12:00:00 5.5 8 Norte 13 Norte 0 964 0.7 65
2020-01-11 11:00:00 2.1 10 Noroeste 13 Noroeste 0 964 1 73
2020-01-11 10:00:00 0.1 9 Norte 15 Norte 0 963.5 1 77
2020-01-11 09:00:00 -1.9 11 Noroeste 17 Norte 0 963.3 1 84
2020-01-11 08:00:00 -1.6 8 Norte 13 Norte 0 963 0.6 87
2020-01-11 07:00:00 -1.9 5 Norte 11 Norte 0 962.5 0 89
2020-01-11 06:00:00 -0.8 5 Norte 11 Norte 0 962.3 -0.2 85
2020-01-11 05:00:00 -0.6 3 Noroeste 11 Norte 0 962.4 0.3 86
2020-01-11 04:00:00 0.8 6 Norte 15 Nordeste 0 962.5 0.5 81
2020-01-11 03:00:00 1.3 5 Norte 11 Norte 0 962.5 0.3 79
2020-01-11 02:00:00 1.7 5 Noroeste 11 Noroeste 0 962.1 0.3 80
2020-01-11 01:00:00 2.1 6 Norte 15 Norte 0 962 0.3 78
2020-01-11 00:00:00 2.9 3 Nordeste 11 Sudeste 0 962.2 0.7 75
2020-01-10 23:00:00 4.1 7 Norte 18 Norte 0 961.8 0.9 72
2020-01-10 22:00:00 5.5 14 Norte 22 Norte 0 961.7 1.3 68
2020-01-10 21:00:00 6 14 Norte 18 Norte 0 961.5 1.7 64
2020-01-10 20:00:00 6.4 14 Norte 21 Norte 0 960.9 1.6 61
2020-01-10 19:00:00 7.4 13 Norte 24 Norte 0 960.4 1.6 56
2020-01-10 18:00:00 9.9 13 Norte 30 Norte 0 959.8 1 49
2020-01-10 17:00:00 11.6 15 Norte 26 Norte 0 959.3 0.2 42
2020-01-10 16:00:00 12.1 15 Norte 32 Norte 0 958.8 -0.9 40
2020-01-10 15:00:00 12 22 Norte 35 Norte 0 958.8 -1.2 41
2020-01-10 14:00:00 11.3 20 Norte 39 Norte 0 959.1 -1 43
2020-01-10 13:00:00 10.9 18 Norte 33 Norte 0 959.7 -0.3 46
2020-01-10 12:00:00 9.1 15 Norte 22 Norte 0 960 0.6 60
2020-01-10 11:00:00 7.2 6 Oeste 17 Norte 0 960.1 1 71
2020-01-10 10:00:00 3.8 2 Sudoeste 18 Norte 0 960 2 83
2020-01-10 09:00:00 1 8 Norte 13 Norte 0 959.4 2.2 94
2020-01-10 08:00:00 -0.1 6 Oeste 13 Oeste 0 959.1 2.3 95
2020-01-10 07:00:00 0.6 5 Oeste 8 Sudeste 0 958 0.8 93
2020-01-10 06:00:00 1.2 2 Este 9 Sur 0 957.2 0.3 94
2020-01-10 05:00:00 1.4 5 Sur 8 Sudeste 0 956.8 0.1 92
2020-01-10 04:00:00 2.9 4 Sur 8 Sur 0 957.2 0.6 92
2020-01-10 03:00:00 2.4 4 Sur 8 Sur 0 956.9 0.1 89
2020-01-10 02:00:00 3.9 8 Sur 17 Este 0 956.7 0.4 88
2020-01-10 01:00:00 4.9 6 Norte 13 Sudeste 0 956.6 0 86
2020-01-10 00:00:00 5.9 8 Sudeste 13 Sudeste 0 956.8 -0.3 85
2020-01-09 23:00:00 7 8 Sur 21 Sur 0 956.3 -0.8 79
2020-01-09 22:00:00 7.4 14 Sudeste 21 Sur 0 956.6 0 79
2020-01-09 21:00:00 8.6 8 Sudeste 15 Sur 0 957.1 0.8 74
2020-01-09 20:00:00 8.9 5 Sudeste 15 Sur 0 957.1 0.9 70
2020-01-09 19:00:00 9.8 10 Sudoeste 17 Sudoeste 0 956.6 0.1 64
2020-01-09 18:00:00 11 10 Sur 22 Sudoeste 0 956.3 -0.8 60
2020-01-09 17:00:00 12.9 10 Sur 21 Sur 0 956.2 -1.3 55
2020-01-09 16:00:00 13.4 9 Sur 21 Sur 0 956.5 -2.1 52
2020-01-09 15:00:00 13.3 6 Sudoeste 15 Oeste 0 957.1 -2.1 51
2020-01-09 14:00:00 12.7 2 Sudoeste 13 Sudoeste 0 957.5 -2.3 53
2020-01-09 13:00:00 10.2 5 Sudoeste 15 Sudoeste 0 958.6 -0.8 59
2020-01-09 12:00:00 7.8 5 Sur 9 Oeste 0 959.2 -0.3 65
2020-01-09 11:00:00 4.3 2 Norte 11 Norte 0 959.8 0.4 76
2020-01-09 10:00:00 1.3 0 Calma 8 Oeste 0 959.4 0.2 88
2020-01-09 09:00:00 -0.6 4 Norte -- -- 0 959.5 0.2 91
2020-01-09 08:00:00 -0.5 6 Norte 8 Norte 0 959.4 -0.3 90
2020-01-09 07:00:00 -0.3 5 Norte 8 Norte 0 959.2 -0.9 90
2020-01-09 06:00:00 0.1 6 Norte 8 Noroeste 0 959.3 -0.9 88
2020-01-09 05:00:00 0.6 7 Norte -- -- 0 959.7 -0.5 87
2020-01-09 04:00:00 -- 8 Norte 9 Norte 0 960.1 -0.3 --
2020-01-09 03:00:00 1.4 6 Norte 9 Norte 0 960.2 -0.5 84
2020-01-09 02:00:00 1.9 7 Norte 11 Norte 0 960.2 -0.4 81
2020-01-09 01:00:00 3.2 10 Noroeste 13 Norte 0 960.4 0.1 77
2020-01-09 00:00:00 3.3 8 Noroeste 11 Norte 0 960.7 0.6 77
2020-01-08 23:00:00 3.8 5 Noroeste 9 Noroeste 0 960.6 0.5 75
2020-01-08 22:00:00 4.8 2 Norte 5 Este 0 960.3 0.7 68
2020-01-08 21:00:00 6.2 3 Sur 9 Sudeste 0 960.1 0.8 63
2020-01-08 20:00:00 7.7 6 Sudeste 9 Sudeste 0 960.1 1.1 53
2020-01-08 19:00:00 9.2 0 Calma 4 Sudeste 0 959.6 0.6 45
2020-01-08 18:00:00 11.9 0 Calma 4 Norte 0 959.3 0.1 43
2020-01-08 17:00:00 16.2 0 Calma 8 Oeste 0 959 -0.8 34
2020-01-08 16:00:00 15.8 0 Calma 11 Sudoeste 0 959 -1.5 29
2020-01-08 15:00:00 14.6 3 Sudoeste 11 Sudoeste 0 959.2 -2.4 30
2020-01-08 14:00:00 12.8 4 Sur 11 Sudoeste 0 959.8 -2.1 41
2020-01-08 13:00:00 10 4 Sudoeste 11 Oeste 0 960.5 -1.3 50
2020-01-08 12:00:00 7.8 4 Sur 5 Sudeste 0 961.6 0.4 64
2020-01-08 11:00:00 4.1 0 Calma 8 Noroeste 0 961.9 0.9 74
2020-01-08 10:00:00 1 6 Noroeste 11 Norte 0 961.8 0.8 83
2020-01-08 09:00:00 -1.5 5 Norte 9 Norte 0 961.2 0.1 91
2020-01-08 08:00:00 -1.5 3 Norte 8 Norte 0 961 -0.2 91
2020-01-08 07:00:00 -1.6 6 Norte -- -- 0 961 -0.5 92
2020-01-08 06:00:00 -1.3 6 Noroeste 8 Noroeste 0 961.1 -0.5 92
2020-01-08 05:00:00 -1.1 4 Norte -- -- 0 961.2 -0.4 91
2020-01-08 04:00:00 -0.7 5 Norte -- -- 0 961.5 -0.3 91
2020-01-08 03:00:00 -0.6 7 Norte 9 Norte 0 961.6 -0.4 90
2020-01-08 02:00:00 -0.2 5 Norte 9 Norte 0 961.6 -0.4 88
2020-01-08 01:00:00 0.4 6 Norte 9 Norte 0 961.8 -0.1 88
2020-01-08 00:00:00 0.8 9 Norte 11 Norte 0 962 0.4 87
2020-01-07 23:00:00 1.7 8 Norte 9 Norte 0 962 0.3 84
2020-01-07 22:00:00 2.9 6 Norte 9 Norte 0 961.9 0.4 79
2020-01-07 21:00:00 4.3 4 Nordeste 9 Norte 0 961.6 0.4 80
2020-01-07 20:00:00 5.6 3 Sur 9 Sur 0 961.7 0.7 71
2020-01-07 19:00:00 7.1 4 Sur 11 Sur 0 961.5 0.2 66
2020-01-07 18:00:00 10.5 5 Sur 13 Sur 0 961.2 -0.4 55
2020-01-07 17:00:00 14 4 Sudeste 11 Sur 0 961 -1.2 43
2020-01-07 16:00:00 14 5 Sur 9 Sudoeste 0 961.3 -1.9 38
2020-01-07 15:00:00 13.3 0 Calma 11 Oeste 0 961.6 -2 39
2020-01-07 14:00:00 10.6 5 Sur 13 Oeste 0 962.2 -1.5 47
2020-01-07 13:00:00 8.9 2 Sur 9 Oeste 0 963.2 -0.6 51
2020-01-07 12:00:00 5.6 0 Calma 13 Sudoeste 0 963.6 0.3 63
2020-01-07 11:00:00 2.9 0 Calma 8 Norte 0 963.7 0.8 73
2020-01-07 10:00:00 -0.3 4 Norte 8 Nordeste 0 963.8 1 88
2020-01-07 09:00:00 -2.3 5 Norte 11 Norte 0 963.3 0.6 91
2020-01-07 08:00:00 -2 5 Norte 8 Norte 0 962.9 0 92
2020-01-07 07:00:00 -2 5 Norte 8 Norte 0 962.8 -0.1 92
2020-01-07 06:00:00 -2 4 Norte 9 Norte 0 962.7 -0.3 92
2020-01-07 05:00:00 -1.3 5 Norte 9 Norte 0 962.9 0.3 93
2020-01-07 04:00:00 -1.1 4 Norte 8 Norte 0 962.9 0.4 91
2020-01-07 03:00:00 -0.2 6 Norte 9 Norte 0 963 0.5 90
2020-01-07 02:00:00 0.2 5 Norte 9 Norte 0 962.6 0.5 89
2020-01-07 01:00:00 0.8 4 Norte 9 Norte 0 962.5 0.9 89
2020-01-07 00:00:00 1.6 5 Norte 11 Norte 0 962.5 1.1 87
2020-01-06 23:00:00 2.4 6 Norte 11 Norte 0 962.1 1.5 86
2020-01-06 22:00:00 3.2 8 Norte 11 Norte 0 961.6 1.5 85
2020-01-06 21:00:00 4.6 6 Norte 9 Norte 0 961.4 1.6 80
2020-01-06 20:00:00 5 4 Norte 9 Oeste 0 960.6 1.2 77
2020-01-06 19:00:00 7.3 2 Sudoeste 11 Sudoeste 0 960.1 0.7 69
2020-01-06 18:00:00 10.8 5 Sudoeste 13 Sur 0 959.8 0.6 59
2020-01-06 17:00:00 13.1 6 Sur 15 Sur 0 959.4 -0.5 48
2020-01-06 16:00:00 13.9 4 Sudoeste 13 Sudoeste 0 959.4 -1.2 46
2020-01-06 15:00:00 13 4 Sur 11 Sur 0 959.2 -2.4 48
2020-01-06 14:00:00 10.9 5 Sudoeste 13 Sudoeste 0 959.9 -1.8 54
2020-01-06 13:00:00 8.8 4 Sudoeste 13 Sudoeste 0 960.6 -1.2 62
2020-01-06 12:00:00 5.4 2 Oeste 8 Oeste 0 961.6 0.3 71
2020-01-06 11:00:00 2 3 Oeste 5 Oeste 0 961.7 1 79
2020-01-06 10:00:00 -0.3 4 Norte 8 Norte 0 961.8 1.6 91